Port Stanley, Washington
Current Conditions -  °F | °C
As of 5:53 AM on Monday 20 Oct 2014 (Local Time) from KFHR Reporting Station
Overcast Overcast  
Wind Chill: 56°   Ceiling: 4900
Heat Index: 56°   Visibility: 10mi
Dew Point: 55°   Wind: 0mph
Humidity: 97%   Direction: NA
Pressure: 29.67"   Gusts: NA
Location:  48.4848°N, 122.883°W
Report Text: KFHR 201253Z AUTO 00000KT 10SM OVC049 13/13 A2967 RMK AO2 RAB1158E09 SLP047 P0000 T01330128
Loading
Personal Weather Stations






























Interactive Weather Map
Tropical Storm Tracking
New forecast layout! Learn more

10-Day Weather Forecast

Advertisements
Track Severe Weather on mobile